createdAt,value
2023-03-23T15:58:30.671Z,30.15
2023-03-23T16:01:02.145Z,29.27
2023-03-23T16:03:38.915Z,29.64
2023-03-23T16:06:07.586Z,29.65
2023-03-23T16:08:40.968Z,29.88
2023-03-23T16:11:09.313Z,29.83
2023-03-23T16:13:37.371Z,29.77
2023-03-23T16:16:08.437Z,29.97
2023-03-23T16:18:36.460Z,29.81
2023-03-23T16:21:05.267Z,30.55
2023-03-23T16:23:33.220Z,30.14
2023-03-23T16:26:02.810Z,30.21
2023-03-23T16:28:30.741Z,30.72
2023-03-23T16:30:58.774Z,31.09
2023-03-23T16:33:26.791Z,30.97
2023-03-23T16:35:58.441Z,30.96
2023-03-23T16:38:26.703Z,30.96
2023-03-23T16:40:54.762Z,30.99
2023-03-23T16:43:24.417Z,31.27
2023-03-23T16:45:56.931Z,31.62
2023-03-23T16:48:26.788Z,32.04
2023-03-23T16:50:55.552Z,32.44
2023-03-23T16:53:25.037Z,32.95
2023-03-23T16:55:53.572Z,33.08
2023-03-23T16:58:27.302Z,33.01
2023-03-23T17:00:55.335Z,33.17
2023-03-23T17:03:23.546Z,33.19
2023-03-23T17:05:53.163Z,33.97
2023-03-23T17:08:21.669Z,33.77
2023-03-23T17:10:50.059Z,34.11
2023-03-23T17:13:18.539Z,34.21
2023-03-23T17:15:48.195Z,34.75
2023-03-23T17:18:17.339Z,35.16
2023-03-23T17:20:45.575Z,35.34
2023-03-23T17:23:13.647Z,36.30
2023-03-23T17:25:42.051Z,36.08
2023-03-23T17:28:10.638Z,36.02
2023-03-23T17:30:42.415Z,36.50
2023-03-23T17:33:12.661Z,36.73
2023-03-23T17:35:40.860Z,37.11
2023-03-23T17:38:08.912Z,37.12
2023-03-23T17:40:36.875Z,37.60
2023-03-23T17:43:05.263Z,37.26
2023-03-23T17:45:33.280Z,38.34
2023-03-23T17:48:01.500Z,38.86
2023-03-23T17:50:31.197Z,39.00
2023-03-23T17:53:01.460Z,38.80
2023-03-23T17:55:29.476Z,39.84
2023-03-23T17:57:57.507Z,40.11
2023-03-23T18:00:25.702Z,40.64
2023-03-23T18:02:53.842Z,40.06
2023-03-23T18:05:21.904Z,39.96
2023-03-23T18:07:51.774Z,39.62
2023-03-23T18:10:19.849Z,39.90
2023-03-23T18:12:51.239Z,39.67
2023-03-23T18:15:19.575Z,39.56
2023-03-23T18:17:50.534Z,40.09
2023-03-23T18:20:18.949Z,40.13
2023-03-23T18:22:46.947Z,40.32
2023-03-23T18:25:17.174Z,40.19
2023-03-23T18:27:45.507Z,40.46
2023-03-23T18:30:13.624Z,40.70
2023-03-23T18:32:42.062Z,40.20
2023-03-23T18:35:12.040Z,40.46
2023-03-23T18:37:41.392Z,40.93
2023-03-23T18:40:12.110Z,41.97
2023-03-23T18:42:44.948Z,42.17
2023-03-23T18:45:13.755Z,42.47
2023-03-23T18:47:42.004Z,43.05
2023-03-23T18:50:11.432Z,43.13
2023-03-23T18:52:39.712Z,43.36
2023-03-23T18:55:11.417Z,42.61
2023-03-23T18:57:42.032Z,43.24
2023-03-23T19:00:11.131Z,43.38
2023-03-23T19:02:41.852Z,43.80
2023-03-23T19:05:11.034Z,43.66
2023-03-23T19:07:43.564Z,43.44
2023-03-23T19:10:11.594Z,44.29
2023-03-23T19:12:41.613Z,44.06
2023-03-23T19:15:11.962Z,43.42
2023-03-23T19:17:39.990Z,43.20
2023-03-23T19:20:14.499Z,42.99
2023-03-23T19:22:47.558Z,43.91
2023-03-23T19:25:15.823Z,44.50
2023-03-23T19:28:27.415Z,45.73
2023-03-23T19:30:33.103Z,45.19
2023-03-23T19:33:01.448Z,44.83
2023-03-23T19:35:29.989Z,45.08
2023-03-23T19:37:58.044Z,45.11
2023-03-23T19:40:39.105Z,44.50
2023-03-23T19:43:15.557Z,44.32
2023-03-23T19:45:43.820Z,44.19
2023-03-23T19:48:12.293Z,44.62
2023-03-23T19:50:42.505Z,44.85
2023-03-23T19:53:13.157Z,46.07
2023-03-23T19:55:41.653Z,46.21
2023-03-23T19:58:10.477Z,45.80
2023-03-23T20:00:40.266Z,45.84
2023-03-23T20:03:08.922Z,45.75
2023-03-23T20:05:37.497Z,46.24
2023-03-23T20:08:05.808Z,46.54
2023-03-23T20:10:35.617Z,46.74
2023-03-23T20:13:03.688Z,47.01
2023-03-23T20:15:32.499Z,48.22
2023-03-23T20:18:02.365Z,47.79
2023-03-23T20:20:30.943Z,48.32
2023-03-23T20:22:59.171Z,48.32
2023-03-23T20:25:27.421Z,48.99
2023-03-23T20:27:58.347Z,48.90
2023-03-23T20:30:27.307Z,48.75
2023-03-23T20:32:58.185Z,48.77
2023-03-23T20:35:29.398Z,49.19
2023-03-23T20:37:57.620Z,49.14
2023-03-23T20:40:25.593Z,48.73
2023-03-23T20:42:54.572Z,48.56
2023-03-23T20:45:22.725Z,48.19
2023-03-23T20:47:50.676Z,48.10
2023-03-23T20:50:18.894Z,47.97
2023-03-23T20:52:48.220Z,48.67
2023-03-23T20:55:16.199Z,48.35
2023-03-23T20:57:44.646Z,49.84
2023-03-23T21:00:16.377Z,50.12
2023-03-23T21:02:44.775Z,50.39
2023-03-23T21:05:12.752Z,50.29
2023-03-23T21:07:42.773Z,53.40
2023-03-23T21:10:12.169Z,52.17
2023-03-23T21:12:40.108Z,52.44
2023-03-23T21:15:08.288Z,52.84
2023-03-23T21:17:36.361Z,52.74
2023-03-23T21:20:06.053Z,52.54
2023-03-23T21:22:34.970Z,51.91
2023-03-23T21:25:03.389Z,52.29
2023-03-23T21:27:32.771Z,52.53
2023-03-23T21:30:01.253Z,52.51
2023-03-23T21:32:29.424Z,52.48
2023-03-23T21:35:02.352Z,52.25
2023-03-23T21:37:30.865Z,52.46
2023-03-23T21:39:59.165Z,52.53
2023-03-23T21:42:30.507Z,52.77
2023-03-23T21:45:02.734Z,52.54
2023-03-23T21:47:31.354Z,52.26
2023-03-23T21:49:59.818Z,52.73
2023-03-23T21:52:28.092Z,52.47
2023-03-23T21:54:58.861Z,52.52
2023-03-23T21:57:27.626Z,53.19
2023-03-23T21:59:55.972Z,53.71
2023-03-23T22:02:25.622Z,54.46
2023-03-23T22:04:56.409Z,55.00
2023-03-23T22:07:24.406Z,54.62
2023-03-23T22:09:52.799Z,54.37
2023-03-23T22:12:21.058Z,54.34
2023-03-23T22:14:49.127Z,54.72
2023-03-23T22:17:17.303Z,54.96
2023-03-23T22:19:46.914Z,56.19
2023-03-23T22:22:14.892Z,57.07
2023-03-23T22:24:42.963Z,56.43
2023-03-23T22:27:10.980Z,56.83
2023-03-23T22:29:39.024Z,56.32
2023-03-23T22:32:07.270Z,57.38
2023-03-23T22:34:35.319Z,57.29
2023-03-23T22:37:05.682Z,56.75
2023-03-23T22:39:34.625Z,59.23
2023-03-23T22:42:02.705Z,58.24
2023-03-23T22:44:30.735Z,57.42
2023-03-23T22:46:58.752Z,57.28
2023-03-23T22:49:26.850Z,57.36
2023-03-23T22:51:54.888Z,57.27
2023-03-23T22:54:24.311Z,56.76
2023-03-23T22:56:52.382Z,57.20
2023-03-23T22:59:20.544Z,57.16
2023-03-23T23:01:48.703Z,57.57
2023-03-23T23:04:16.832Z,57.54
2023-03-23T23:06:44.882Z,57.34
2023-03-23T23:09:12.952Z,56.99
2023-03-23T23:11:42.383Z,57.88
2023-03-23T23:14:11.144Z,57.48
2023-03-23T23:16:39.218Z,57.19
2023-03-23T23:19:07.433Z,57.88
2023-03-23T23:21:35.634Z,57.01
2023-03-23T23:24:03.789Z,57.94
2023-03-23T23:26:31.832Z,57.66
2023-03-23T23:29:02.839Z,57.03
2023-03-23T23:31:33.804Z,56.99
2023-03-23T23:34:03.802Z,57.53
2023-03-23T23:36:33.116Z,58.47
2023-03-23T23:39:02.488Z,60.03
2023-03-23T23:41:31.770Z,58.67
2023-03-23T23:44:01.600Z,59.25
2023-03-23T23:46:31.029Z,59.00
2023-03-23T23:48:59.958Z,58.77
2023-03-23T23:51:28.649Z,59.48
2023-03-23T23:53:58.955Z,58.58
2023-03-23T23:56:27.449Z,58.79
2023-03-23T23:58:55.706Z,58.71
